Portada
METAR-TAF:

METAR-TAF

Aeroports :

Aeroport de Reykjavík

Reykjavík, Islàndia

latitud: 64-08N, longitud: 021-54W, altitud: 54 m

Observació

L'informe es va fer fa 40 minuts, a les 02:00 UTC
Vent 9 kt del Est/Sud-Est
Temperatura 10°C
Humitat 87%
Pressió 1010 hPa
Visibilitat 10 km o més
Núvols disperses a una alçada de 4500 ft

METAR: BIRK 260200Z 12009KT 9999 SCT045 10/08 Q1010

Hora: 02:40 (02:40 UTC)

Pronòstic

L'informe es va fer fa 1 hora i 10 minuts, a les 01:30 UTC
Pronòstic vàlid del 26 a les 03 UTC al 27 a les 03 UTC
Vent 12 kt del Sud-Est
Visibilitat 10 km o més
Núvols disperses a una alçada de 4500 ft

TAF: BIRK 260130Z 2603/2703 14012KT 9999 SCT045 TX14/2615Z TN09/2603Z

Observacions i pronòstics meteorològics de més de 4000 aeroports (METAR i TAF).

Les estacions disponibles són els punts grocs i vermells al mapa.

Posi el ratolí al punt desitjat per veure el nom de l'estació.

Feu clic per veure les observacions i els pronòstics meteorològics.

Per canviar el mapa: feu clic els botons verds amb una creu de color negre per apropar; al botó verd amb un guió per allunyar la imatge; o en les fletxes verdes per a mapes adjacents.


METAR-TAF: